Time;durP1;ratioP1;P1;durP2;ratioP2;P2;SDS_P1;SDS_P2;PMS_P1;PMS_P2;Temp;Humidity;BMP_temperature;BMP_pressure;BME280_temperature;BME280_humidity;BME280_pressure;Samples;Min_cycle;Max_cycle;Signal;HPM_P1;HPM_P2
2022/01/04 06:16:22;;;;;;;15.93;13.00;;;11.60;92.40;;;;;;5844010;22;20058;-81
2022/01/04 06:18:47;;;;;;;18.50;14.07;;;11.60;92.40;;;;;;5033569;28;20396;-80
2022/01/04 06:21:13;;;;;;;17.02;13.75;;;11.60;92.30;;;;;;5017840;28;20037;-82
2022/01/04 06:23:38;;;;;;;17.45;12.82;;;11.60;92.30;;;;;;5012761;28;20068;-81
2022/01/04 06:26:04;;;;;;;17.00;13.50;;;11.60;92.30;;;;;;5002659;28;20021;-82
2022/01/04 06:28:31;;;;;;;17.38;13.50;;;11.60;92.30;;;;;;5016593;28;20086;-80
2022/01/04 06:30:56;;;;;;;17.90;13.43;;;11.60;92.30;;;;;;5015176;28;20077;-82
2022/01/04 06:33:23;;;;;;;17.48;13.45;;;11.60;92.30;;;;;;5016043;28;20041;-79
2022/01/04 06:35:49;;;;;;;17.98;13.82;;;11.60;92.30;;;;;;5011080;28;20034;-79
2022/01/04 06:38:15;;;;;;;16.10;13.43;;;11.60;92.20;;;;;;5012392;28;20079;-79
2022/01/04 06:40:40;;;;;;;17.88;13.38;;;11.60;92.20;;;;;;5013925;28;20393;-80
2022/01/04 06:43:06;;;;;;;18.05;14.05;;;11.60;92.20;;;;;;5013047;28;20025;-79
2022/01/04 06:45:32;;;;;;;16.27;13.20;;;11.60;92.20;;;;;;5015180;28;20030;-80
2022/01/04 06:47:57;;;;;;;16.67;13.35;;;11.60;92.20;;;;;;5039293;28;20108;-79
2022/01/04 06:50:23;;;;;;;16.63;13.10;;;11.60;92.10;;;;;;5009036;28;20018;-79
2022/01/04 06:52:49;;;;;;;17.88;13.45;;;11.60;92.20;;;;;;5013636;28;20022;-79
2022/01/04 06:55:15;;;;;;;17.95;14.15;;;11.60;92.20;;;;;;5007796;28;20026;-78
2022/01/04 06:57:42;;;;;;;17.50;13.70;;;11.60;92.20;;;;;;5016600;28;20022;-78
2022/01/04 07:00:08;;;;;;;17.17;13.82;;;11.60;92.10;;;;;;5003351;28;20026;-79
2022/01/04 07:02:34;;;;;;;16.98;14.35;;;11.60;92.20;;;;;;5029618;28;20022;-79
2022/01/04 07:04:59;;;;;;;16.80;13.68;;;11.60;92.10;;;;;;5029488;28;20022;-78
2022/01/04 07:07:25;;;;;;;17.00;13.48;;;11.60;92.10;;;;;;5015118;28;20109;-79
2022/01/04 07:09:50;;;;;;;18.50;14.45;;;11.60;92.20;;;;;;5026437;28;20376;-81
2022/01/04 07:12:16;;;;;;;19.02;14.38;;;11.70;92.10;;;;;;5011168;28;20048;-78
2022/01/04 07:14:41;;;;;;;17.98;14.63;;;11.60;92.10;;;;;;5013047;28;20025;-79
2022/01/04 07:17:07;;;;;;;18.25;14.32;;;11.60;92.10;;;;;;5012515;28;20099;-79
2022/01/04 07:19:33;;;;;;;18.70;14.98;;;11.60;92.10;;;;;;5013772;28;20033;-79
2022/01/04 07:21:58;;;;;;;19.42;15.10;;;11.60;92.10;;;;;;5012445;28;20037;-81
2022/01/04 07:24:25;;;;;;;19.95;15.32;;;11.60;92.10;;;;;;5012554;28;20107;-79
2022/01/04 07:26:51;;;;;;;19.08;15.45;;;11.60;92.10;;;;;;5011767;28;20029;-76
2022/01/04 07:29:16;;;;;;;16.38;13.73;;;11.50;92.10;;;;;;5012386;28;20551;-77
2022/01/04 07:31:42;;;;;;;18.25;14.20;;;11.60;92.40;;;;;;5010984;28;20555;-77
2022/01/04 07:34:07;;;;;;;21.38;14.93;;;11.60;92.30;;;;;;5011363;28;20044;-78
2022/01/04 07:36:33;;;;;;;19.58;14.73;;;11.60;92.30;;;;;;5011065;28;20026;-77
2022/01/04 07:38:59;;;;;;;21.23;15.75;;;11.60;92.20;;;;;;5011365;28;20026;-77
2022/01/04 07:41:24;;;;;;;21.17;15.27;;;11.60;92.10;;;;;;5011611;28;20032;-78
2022/01/04 07:43:50;;;;;;;20.27;15.30;;;11.60;92.10;;;;;;5012958;28;20029;-76
2022/01/04 07:46:16;;;;;;;19.63;15.10;;;11.50;92.10;;;;;;5011221;28;20052;-77
2022/01/04 07:48:41;;;;;;;20.77;15.40;;;11.50;92.20;;;;;;5010446;28;20025;-77
2022/01/04 07:51:07;;;;;;;19.30;15.02;;;11.50;92.20;;;;;;5011237;28;20484;-77
2022/01/04 07:53:33;;;;;;;20.58;15.75;;;11.50;92.20;;;;;;5011091;28;20382;-77
2022/01/04 07:55:58;;;;;;;21.40;15.25;;;11.50;92.20;;;;;;5010883;28;20033;-77
2022/01/04 07:58:25;;;;;;;20.65;15.52;;;11.50;92.20;;;;;;5008520;28;20029;-77
2022/01/04 08:00:51;;;;;;;20.45;15.93;;;11.50;92.30;;;;;;5026828;28;20041;-77
2022/01/04 08:03:17;;;;;;;20.67;15.40;;;11.50;92.40;;;;;;5010041;28;20041;-78
2022/01/04 08:05:44;;;;;;;20.95;15.38;;;11.50;92.20;;;;;;5012022;28;20022;-77
2022/01/04 08:08:09;;;;;;;22.23;15.85;;;11.50;92.30;;;;;;5010537;28;20103;-77
2022/01/04 08:10:35;;;;;;;20.92;16.05;;;11.50;92.20;;;;;;5009332;28;20084;-77
2022/01/04 08:13:02;;;;;;;20.63;15.60;;;11.60;92.30;;;;;;5026721;28;20029;-77
2022/01/04 08:15:27;;;;;;;19.15;15.52;;;11.50;92.30;;;;;;5009983;28;20026;-78
2022/01/04 08:17:53;;;;;;;18.50;15.15;;;11.50;92.50;;;;;;5011520;28;20091;-78
2022/01/04 08:20:19;;;;;;;21.70;16.02;;;11.50;92.50;;;;;;5010483;28;20034;-77
2022/01/04 08:22:44;;;;;;;20.42;15.88;;;11.60;92.50;;;;;;5011439;28;20032;-78
2022/01/04 08:25:11;;;;;;;20.50;15.30;;;11.60;92.50;;;;;;5011528;28;20041;-78
2022/01/04 08:27:37;;;;;;;21.13;16.25;;;11.60;92.40;;;;;;5010418;28;20075;-78
2022/01/04 08:30:05;;;;;;;20.73;16.33;;;11.60;92.30;;;;;;5010605;28;20850;-79
2022/01/04 08:32:31;;;;;;;20.45;15.95;;;11.60;92.40;;;;;;5010824;28;20037;-77
2022/01/04 08:34:56;;;;;;;21.63;16.30;;;11.60;92.30;;;;;;5010558;28;20030;-78
2022/01/04 08:37:22;;;;;;;22.88;16.83;;;11.60;92.30;;;;;;5012238;28;20226;-77
2022/01/04 08:39:47;;;;;;;20.70;16.17;;;11.60;92.30;;;;;;5011848;28;20098;-78
2022/01/04 08:42:13;;;;;;;21.88;16.77;;;11.60;92.30;;;;;;5012175;28;20397;-77
2022/01/04 08:44:40;;;;;;;20.90;16.17;;;11.60;92.20;;;;;;5010012;28;20098;-79
2022/01/04 08:47:14;;;;;;;21.52;17.40;;;11.60;92.20;;;;;;5010517;28;20029;-79
2022/01/04 08:49:40;;;;;;;23.23;16.75;;;11.60;92.20;;;;;;5006005;28;20177;-77
2022/01/04 08:52:07;;;;;;;23.40;17.50;;;11.60;92.20;;;;;;5026340;28;20083;-79
2022/01/04 08:54:34;;;;;;;22.52;17.33;;;11.60;92.20;;;;;;5009552;28;20384;-78
2022/01/04 08:56:59;;;;;;;21.58;16.20;;;11.60;92.30;;;;;;5009375;28;20104;-78
2022/01/04 08:59:27;;;;;;;20.75;16.77;;;11.60;92.20;;;;;;5009327;28;20025;-77
2022/01/04 09:01:52;;;;;;;23.23;16.60;;;11.60;92.10;;;;;;5010155;28;20048;-77
2022/01/04 09:04:18;;;;;;;20.55;16.60;;;11.60;92.00;;;;;;5009863;28;20759;-76
2022/01/04 09:06:43;;;;;;;24.80;17.08;;;11.60;92.00;;;;;;5009164;28;20026;-78
2022/01/04 09:09:09;;;;;;;22.40;17.05;;;11.50;92.00;;;;;;5010867;28;20046;-76
2022/01/04 09:11:35;;;;;;;21.60;16.58;;;11.50;92.00;;;;;;5011136;28;20026;-77
2022/01/04 09:19:24;;;;;;;22.60;16.17;;;11.50;92.10;;;;;;4994772;28;20117;-79
2022/01/04 09:21:50;;;;;;;21.40;16.00;;;11.50;92.10;;;;;;5009152;28;20378;-76
2022/01/04 09:24:17;;;;;;;21.05;16.85;;;11.50;92.10;;;;;;5011364;28;20038;-77
2022/01/04 09:26:42;;;;;;;21.23;16.58;;;11.50;92.10;;;;;;5014083;28;20034;-77
2022/01/04 09:29:08;;;;;;;22.98;16.73;;;11.50;92.10;;;;;;5010779;28;20026;-77
2022/01/04 09:31:34;;;;;;;22.38;16.58;;;11.50;92.40;;;;;;5012950;28;20037;-77
2022/01/04 09:34:02;;;;;;;22.08;16.75;;;11.50;92.10;;;;;;5010968;28;20030;-76
2022/01/04 09:36:40;;;;;;;21.23;16.20;;;11.50;92.20;;;;;;5011482;28;20033;-76
2022/01/04 09:39:13;;;;;;;23.88;16.95;;;11.50;92.10;;;;;;5011187;28;20038;-77
2022/01/04 09:41:40;;;;;;;22.05;17.27;;;11.50;92.20;;;;;;5009934;28;20477;-78
2022/01/04 09:44:05;;;;;;;21.30;16.50;;;11.50;92.20;;;;;;5011467;28;20030;-77
2022/01/04 09:46:32;;;;;;;21.42;16.45;;;11.50;92.10;;;;;;5012176;28;20026;-80
2022/01/04 09:48:58;;;;;;;22.23;16.27;;;11.40;92.10;;;;;;5010563;28;20026;-76
2022/01/04 09:51:25;;;;;;;20.95;16.92;;;11.50;92.10;;;;;;5011649;28;20072;-77
2022/01/04 09:53:51;;;;;;;20.95;16.27;;;11.50;92.10;;;;;;5013384;28;20084;-78
2022/01/04 09:56:16;;;;;;;19.10;15.63;;;11.50;92.10;;;;;;5011890;28;20030;-77
2022/01/04 09:58:42;;;;;;;20.60;16.05;;;11.40;92.10;;;;;;5012552;28;20022;-78
2022/01/04 10:01:25;;;;;;;21.00;16.40;;;11.40;92.10;;;;;;5012434;28;20034;-76
2022/01/04 10:03:51;;;;;;;21.30;16.23;;;11.50;92.10;;;;;;5013200;28;20125;-78
2022/01/04 10:06:17;;;;;;;20.65;16.30;;;11.40;92.30;;;;;;5011635;28;20018;-79
2022/01/04 10:08:53;;;;;;;23.05;16.05;;;11.50;92.20;;;;;;5003968;28;20053;-81
2022/01/04 10:11:30;;;;;;;21.90;15.82;;;11.50;92.10;;;;;;5013442;28;20022;-75
2022/01/04 10:13:56;;;;;;;18.95;14.82;;;11.50;92.00;;;;;;5015559;28;20037;-77
2022/01/04 10:16:21;;;;;;;20.13;14.88;;;11.50;91.90;;;;;;5015257;28;20061;-76
2022/01/04 10:18:48;;;;;;;20.85;15.90;;;11.50;92.00;;;;;;5014557;28;20038;-77
2022/01/04 10:21:15;;;;;;;22.77;15.57;;;11.50;92.00;;;;;;5014797;28;20030;-76
2022/01/04 10:23:50;;;;;;;19.77;15.65;;;11.50;92.00;;;;;;5015047;28;20025;-76
2022/01/04 10:26:25;;;;;;;19.55;14.82;;;11.50;92.00;;;;;;5012009;28;20034;-78
2022/01/04 10:28:51;;;;;;;19.95;15.07;;;11.50;92.10;;;;;;4997409;28;20093;-80
2022/01/04 10:31:18;;;;;;;19.33;15.00;;;11.50;92.00;;;;;;5007258;28;20061;-76
2022/01/04 10:33:44;;;;;;;18.98;14.38;;;11.50;92.10;;;;;;5018237;28;20065;-76
2022/01/04 10:36:11;;;;;;;19.02;14.82;;;11.50;92.00;;;;;;5016680;28;20025;-76
2022/01/04 10:38:46;;;;;;;19.95;15.40;;;11.50;92.00;;;;;;5014872;28;20030;-77
2022/01/04 10:41:21;;;;;;;19.23;15.05;;;11.50;92.00;;;;;;5035155;28;20026;-78
2022/01/04 10:43:54;;;;;;;19.48;14.45;;;11.50;92.00;;;;;;5033591;28;20030;-77
2022/01/04 10:46:32;;;;;;;18.83;14.35;;;11.50;91.90;;;;;;5017732;28;20116;-75
2022/01/04 10:48:58;;;;;;;18.83;13.43;;;11.50;92.00;;;;;;5017125;28;20033;-76
2022/01/04 10:51:26;;;;;;;18.17;13.85;;;11.50;92.10;;;;;;5018779;28;20089;-77
2022/01/04 10:54:06;;;;;;;20.67;14.85;;;11.50;91.90;;;;;;5018573;28;20026;-78
2022/01/04 10:56:34;;;;;;;17.60;14.18;;;11.50;92.00;;;;;;5017737;28;20064;-78
2022/01/04 10:59:03;;;;;;;19.60;14.40;;;11.50;92.00;;;;;;5019106;28;20092;-75
2022/01/04 11:01:37;;;;;;;17.92;14.05;;;11.50;91.90;;;;;;5017762;28;20026;-75
2022/01/04 11:04:03;;;;;;;20.13;13.82;;;11.60;91.90;;;;;;5018253;28;20068;-76
2022/01/04 11:06:31;;;;;;;19.08;13.68;;;11.50;91.90;;;;;;5017784;28;20393;-77
2022/01/04 11:08:57;;;;;;;17.38;13.15;;;11.50;91.80;;;;;;5018696;28;20033;-77
2022/01/04 11:11:23;;;;;;;18.23;13.40;;;12.00;92.00;;;;;;5018689;28;20420;-77
2022/01/04 11:13:51;;;;;;;17.92;13.88;;;11.60;91.90;;;;;;5018804;28;20026;-77
2022/01/04 11:16:19;;;;;;;18.80;14.35;;;11.50;91.80;;;;;;5017831;28;20520;-77
2022/01/04 11:18:50;;;;;;;18.50;14.40;;;11.50;91.90;;;;;;5019842;28;20120;-77
2022/01/04 11:21:20;;;;;;;19.67;14.88;;;12.90;92.20;;;;;;5019212;28;20030;-77
2022/01/04 11:23:47;;;;;;;20.58;14.32;;;11.50;91.90;;;;;;5018749;28;20034;-77
2022/01/04 11:26:14;;;;;;;16.77;13.18;;;11.50;91.80;;;;;;5017656;28;20108;-77
2022/01/04 11:28:42;;;;;;;17.52;13.30;;;11.50;91.90;;;;;;5018863;28;20049;-76
2022/01/04 11:31:32;;;;;;;18.67;14.32;;;11.50;91.90;;;;;;5018488;28;20017;-77
2022/01/04 11:34:04;;;;;;;17.25;13.88;;;11.50;91.80;;;;;;5018314;28;20030;-77
2022/01/04 11:36:34;;;;;;;19.02;13.82;;;11.50;91.80;;;;;;5017603;28;20041;-76
2022/01/04 11:39:00;;;;;;;17.48;13.80;;;11.50;91.80;;;;;;5018223;28;20030;-77
2022/01/04 11:41:42;;;;;;;16.40;13.10;;;11.50;91.80;;;;;;5017751;28;20517;-77
2022/01/04 11:44:26;;;;;;;17.30;13.70;;;11.50;91.90;;;;;;5018144;28;20053;-76
2022/01/04 11:46:59;;;;;;;18.90;13.25;;;11.50;91.80;;;;;;5018735;28;20056;-76
2022/01/04 11:49:25;;;;;;;15.95;12.85;;;11.50;91.80;;;;;;5018415;28;20330;-77
2022/01/04 11:51:50;;;;;;;17.38;13.20;;;11.50;91.80;;;;;;5018162;28;20029;-77
2022/01/04 11:54:23;;;;;;;17.02;13.50;;;11.50;91.80;;;;;;5017449;28;20038;-76
2022/01/04 11:56:52;;;;;;;18.70;13.50;;;11.50;91.80;;;;;;5018450;28;20032;-76
2022/01/04 11:59:39;;;;;;;18.50;13.85;;;11.50;91.80;;;;;;5017696;28;20041;-76
2022/01/04 12:02:24;;;;;;;15.15;12.45;;;11.50;91.80;;;;;;5009402;28;20022;-76
2022/01/04 12:04:55;;;;;;;16.50;12.60;;;11.50;91.80;;;;;;5008247;28;20052;-77
2022/01/04 12:07:51;;;;;;;15.43;12.33;;;11.50;91.80;;;;;;5009487;28;20193;-77
2022/01/04 12:10:22;;;;;;;16.55;12.57;;;11.50;91.90;;;;;;5005286;28;21263;-78
2022/01/04 12:13:18;;;;;;;15.80;13.45;;;11.50;91.90;;;;;;5009819;28;20030;-77
2022/01/04 12:15:52;;;;;;;15.93;12.48;;;11.60;91.90;;;;;;5005774;28;20034;-76
2022/01/04 12:18:24;;;;;;;16.15;12.43;;;11.50;91.90;;;;;;5010830;28;20038;-77
2022/01/04 12:20:57;;;;;;;15.90;12.88;;;11.50;91.90;;;;;;5010802;28;20432;-77
2022/01/04 12:23:23;;;;;;;16.00;12.82;;;11.50;91.80;;;;;;5012067;28;20064;-77
2022/01/04 12:26:14;;;;;;;17.20;13.13;;;11.50;92.00;;;;;;5013736;28;20058;-75
2022/01/04 12:28:55;;;;;;;14.10;11.52;;;11.50;92.00;;;;;;5012570;28;20026;-76
2022/01/04 12:31:23;;;;;;;15.02;12.32;;;11.50;92.00;;;;;;5012832;28;20065;-77
2022/01/04 12:34:00;;;;;;;16.38;11.93;;;11.50;92.10;;;;;;5012317;28;20040;-76
2022/01/04 12:36:27;;;;;;;15.70;12.27;;;11.50;92.00;;;;;;5012763;28;20040;-76
2022/01/04 12:38:55;;;;;;;15.45;12.45;;;11.60;91.90;;;;;;5013323;28;20404;-77
2022/01/04 12:41:21;;;;;;;16.83;12.57;;;11.50;91.90;;;;;;5012993;28;20036;-75
2022/01/04 12:43:49;;;;;;;15.20;12.02;;;11.60;91.80;;;;;;5014198;28;20521;-76
2022/01/04 12:46:42;;;;;;;14.88;11.88;;;11.60;91.80;;;;;;5013493;28;20026;-76
2022/01/04 12:49:10;;;;;;;14.50;11.60;;;11.60;91.80;;;;;;5013154;28;20034;-77
2022/01/04 12:51:44;;;;;;;14.05;11.45;;;11.60;91.70;;;;;;5013317;28;20097;-77
2022/01/04 12:54:12;;;;;;;15.52;11.77;;;11.60;91.80;;;;;;5014738;28;20033;-77
2022/01/04 12:56:40;;;;;;;14.65;11.70;;;11.60;91.80;;;;;;5013830;28;20026;-77
2022/01/04 12:59:07;;;;;;;14.45;11.57;;;11.60;91.70;;;;;;5013925;28;20103;-77
2022/01/04 13:01:33;;;;;;;14.95;11.45;;;11.60;91.80;;;;;;5013077;28;20542;-77
2022/01/04 13:03:59;;;;;;;13.57;10.63;;;11.60;91.70;;;;;;5007181;28;20184;-77
2022/01/04 13:06:27;;;;;;;14.73;11.48;;;11.50;91.60;;;;;;5007722;28;20022;-77
2022/01/04 13:08:57;;;;;;;13.95;11.07;;;11.60;91.80;;;;;;5008657;28;20033;-77
2022/01/04 13:11:23;;;;;;;14.07;10.65;;;11.60;91.70;;;;;;5009904;28;20392;-75
2022/01/04 13:14:01;;;;;;;15.00;11.57;;;11.60;91.70;;;;;;5008936;28;20036;-77
2022/01/04 13:16:29;;;;;;;13.30;10.40;;;11.60;91.70;;;;;;5009503;28;20049;-78
2022/01/04 13:19:10;;;;;;;15.85;10.48;;;11.60;91.70;;;;;;5009621;28;20065;-77
2022/01/04 13:21:36;;;;;;;13.77;10.38;;;11.60;91.70;;;;;;5011527;28;20211;-77
2022/01/04 13:24:02;;;;;;;14.20;10.93;;;11.60;91.60;;;;;;5011100;28;20049;-77
2022/01/04 13:26:28;;;;;;;14.45;10.60;;;11.50;91.60;;;;;;5011146;28;20079;-76
2022/01/04 13:28:58;;;;;;;15.57;10.57;;;11.50;91.60;;;;;;5011616;28;20081;-77
2022/01/04 13:31:25;;;;;;;14.55;10.52;;;11.50;91.70;;;;;;5010120;28;20026;-77
2022/01/04 13:33:52;;;;;;;13.98;10.35;;;11.50;91.70;;;;;;5009756;28;20029;-77
2022/01/04 13:36:18;;;;;;;14.25;10.68;;;12.20;91.90;;;;;;5010355;28;20056;-77
2022/01/04 13:38:44;;;;;;;12.77;9.93;;;11.50;91.80;;;;;;5011745;28;20034;-78
2022/01/04 13:41:09;;;;;;;14.02;10.57;;;11.50;91.70;;;;;;5012005;28;20049;-75
2022/01/04 13:43:45;;;;;;;14.57;10.93;;;11.50;91.80;;;;;;5027531;28;20022;-77
2022/01/04 13:46:15;;;;;;;13.55;10.32;;;11.50;91.80;;;;;;5011692;28;20025;-77
2022/01/04 13:48:47;;;;;;;13.73;10.35;;;11.50;91.80;;;;;;5014818;28;20435;-77
2022/01/04 13:51:19;;;;;;;14.15;10.13;;;11.50;91.90;;;;;;5014664;28;20018;-77
2022/01/04 13:53:48;;;;;;;13.68;10.02;;;11.50;91.80;;;;;;5015484;28;20939;-75
2022/01/04 13:56:16;;;;;;;13.43;9.90;;;11.50;91.80;;;;;;5014791;28;20049;-77
2022/01/04 13:58:51;;;;;;;11.52;9.18;;;11.50;91.80;;;;;;5014629;28;20808;-76
2022/01/04 14:01:30;;;;;;;13.95;9.52;;;11.50;91.80;;;;;;5014166;28;20037;-77
2022/01/04 14:04:22;;;;;;;13.65;9.60;;;11.50;91.80;;;;;;5014158;28;20037;-77
2022/01/04 14:06:55;;;;;;;12.65;9.00;;;11.50;91.90;;;;;;5010267;28;20101;-76
2022/01/04 14:09:32;;;;;;;11.68;9.30;;;11.50;91.80;;;;;;5014837;28;20025;-76
2022/01/04 14:12:01;;;;;;;12.70;8.80;;;11.50;91.90;;;;;;5015016;28;20041;-76
2022/01/04 14:14:51;;;;;;;14.10;8.77;;;11.50;91.80;;;;;;5015521;28;20037;-78
2022/01/04 14:17:24;;;;;;;12.30;8.43;;;11.50;91.80;;;;;;5014246;28;20052;-76
2022/01/04 14:19:55;;;;;;;10.50;7.97;;;11.50;91.80;;;;;;5014637;28;20040;-77
2022/01/04 14:22:33;;;;;;;10.80;8.25;;;11.50;91.80;;;;;;5014561;28;20032;-76
2022/01/04 14:25:09;;;;;;;10.93;8.02;;;11.50;91.90;;;;;;5015127;28;20033;-75
2022/01/04 14:27:41;;;;;;;11.05;7.63;;;11.50;91.80;;;;;;5017153;28;20017;-77
2022/01/04 14:30:15;;;;;;;12.55;8.13;;;11.50;91.80;;;;;;5016082;28;20026;-77
2022/01/04 14:32:44;;;;;;;12.05;8.10;;;11.50;91.90;;;;;;5015652;28;20448;-77
2022/01/04 14:35:25;;;;;;;12.73;7.97;;;11.50;91.90;;;;;;5015157;28;20080;-77
2022/01/04 14:37:56;;;;;;;11.38;7.57;;;11.40;91.90;;;;;;5015516;28;20040;-77
2022/01/04 14:40:24;;;;;;;10.75;7.40;;;11.50;91.90;;;;;;5014906;28;20045;-78
2022/01/04 14:42:51;;;;;;;10.15;6.70;;;11.50;91.90;;;;;;5015298;28;20022;-77
2022/01/04 14:45:19;;;;;;;11.40;7.55;;;11.50;91.90;;;;;;5014849;28;20109;-77
2022/01/04 14:47:45;;;;;;;9.98;6.47;;;11.40;92.00;;;;;;5014932;28;20033;-76
2022/01/04 14:50:11;;;;;;;14.52;7.70;;;11.50;92.10;;;;;;5015054;28;20025;-76
2022/01/04 14:52:37;;;;;;;12.15;6.78;;;11.50;92.10;;;;;;5015262;28;20108;-76
2022/01/04 14:55:03;;;;;;;11.13;6.28;;;11.50;92.00;;;;;;5013771;28;20517;-76
2022/01/04 14:57:30;;;;;;;8.57;5.78;;;11.50;92.00;;;;;;5014262;28;20477;-76
2022/01/04 14:59:57;;;;;;;9.00;5.43;;;11.50;92.00;;;;;;5016060;28;20068;-77
2022/01/04 15:02:24;;;;;;;9.02;5.97;;;11.50;92.00;;;;;;5014605;28;20040;-76
2022/01/04 15:04:53;;;;;;;8.45;5.43;;;11.50;92.00;;;;;;5014524;28;20120;-77
2022/01/04 15:07:20;;;;;;;8.27;5.53;;;11.50;92.00;;;;;;5014806;28;20116;-77
2022/01/04 15:09:45;;;;;;;10.02;5.05;;;11.50;92.10;;;;;;5014173;28;20021;-76
2022/01/04 15:12:11;;;;;;;8.75;5.18;;;11.40;92.00;;;;;;5014471;28;20025;-77
2022/01/04 15:14:40;;;;;;;7.70;4.57;;;11.50;92.10;;;;;;5012831;28;20038;-77
2022/01/04 15:17:14;;;;;;;7.05;3.50;;;11.50;92.00;;;;;;5014220;28;20041;-77
2022/01/04 15:19:41;;;;;;;6.05;3.30;;;11.50;91.50;;;;;;5014952;28;20033;-76
2022/01/04 15:22:06;;;;;;;5.55;3.10;;;11.50;91.40;;;;;;5014585;28;20088;-77
2022/01/04 15:24:32;;;;;;;4.53;2.47;;;11.50;91.20;;;;;;5013449;28;20022;-77
2022/01/04 15:26:57;;;;;;;5.40;2.42;;;11.40;90.90;;;;;;5015847;28;20097;-77
2022/01/04 15:29:23;;;;;;;5.15;2.45;;;11.40;90.80;;;;;;5013187;28;20033;-77
2022/01/04 15:31:49;;;;;;;4.18;2.10;;;11.40;90.60;;;;;;5008846;28;20022;-77
2022/01/04 15:34:14;;;;;;;5.70;2.25;;;12.20;90.90;;;;;;5009509;28;20060;-76
2022/01/04 15:40:29;;;;;;;4.47;1.98;;;11.40;90.10;;;;;;5174062;27;20527;-76
2022/01/04 15:42:54;;;;;;;6.05;2.50;;;11.40;90.20;;;;;;5077222;27;1911386;-77
2022/01/04 15:45:20;;;;;;;5.65;2.17;;;11.40;90.30;;;;;;5147394;27;20023;-77
2022/01/04 15:47:47;;;;;;;4.75;2.10;;;11.30;90.40;;;;;;5141820;27;20056;-77
2022/01/04 15:50:13;;;;;;;10.13;3.33;;;11.30;90.10;;;;;;5127126;28;20027;-76
2022/01/04 15:52:38;;;;;;;7.18;2.53;;;11.30;89.50;;;;;;5126185;28;20088;-79
2022/01/04 15:55:05;;;;;;;5.68;2.47;;;11.10;90.00;;;;;;5126274;28;20054;-80
2022/01/04 15:57:31;;;;;;;7.15;2.70;;;11.20;90.10;;;;;;5107190;28;20045;-80
2022/01/04 15:59:56;;;;;;;6.82;2.70;;;11.30;90.20;;;;;;5107664;28;20035;-80
2022/01/04 16:02:22;;;;;;;5.97;2.70;;;11.30;90.20;;;;;;5108689;28;20027;-81
2022/01/04 16:04:49;;;;;;;7.97;3.15;;;11.30;90.50;;;;;;5108861;28;20043;-79
2022/01/04 16:07:15;;;;;;;10.45;3.00;;;11.30;90.30;;;;;;5108472;28;20031;-81
2022/01/04 16:09:40;;;;;;;6.60;2.80;;;11.40;90.30;;;;;;5108774;28;20037;-78
2022/01/04 16:12:06;;;;;;;7.82;2.75;;;11.40;90.30;;;;;;5109068;28;20114;-80
2022/01/04 16:14:31;;;;;;;6.65;2.80;;;11.40;90.40;;;;;;5103100;28;20020;-79
2022/01/04 16:17:09;;;;;;;8.80;2.97;;;11.40;90.50;;;;;;5106109;28;20104;-81
2022/01/04 16:22:19;;;;;;;6.13;2.63;;;11.40;90.60;;;;;;5106412;28;20618;-80
2022/01/04 16:24:45;;;;;;;8.93;2.95;;;11.40;90.90;;;;;;5098188;28;20028;-78
2022/01/04 16:27:11;;;;;;;5.57;2.38;;;11.30;90.70;;;;;;5126318;27;20019;-78
2022/01/04 16:29:37;;;;;;;5.45;2.95;;;11.30;90.70;;;;;;5108443;28;20030;-79
2022/01/04 16:32:02;;;;;;;8.02;2.70;;;11.40;90.70;;;;;;5108158;28;20031;-78
2022/01/04 16:34:28;;;;;;;6.97;2.67;;;11.40;90.80;;;;;;5108484;28;20026;-78
2022/01/04 16:36:57;;;;;;;5.93;2.40;;;11.40;90.80;;;;;;5108117;28;20023;-78
2022/01/04 16:39:26;;;;;;;5.00;2.40;;;11.30;90.80;;;;;;5108059;28;20032;-80
2022/01/04 16:41:53;;;;;;;4.50;2.33;;;11.30;90.90;;;;;;5104966;28;20080;-79
2022/01/04 16:44:22;;;;;;;6.97;2.58;;;11.30;90.80;;;;;;5086892;28;20028;-79
2022/01/04 16:46:49;;;;;;;5.82;2.70;;;11.30;90.80;;;;;;5087416;28;20020;-79
2022/01/04 16:49:15;;;;;;;6.35;2.30;;;11.30;90.90;;;;;;5122704;27;20023;-80
2022/01/04 16:51:42;;;;;;;5.60;2.50;;;11.30;91.00;;;;;;5110575;28;20031;-78
2022/01/04 16:54:09;;;;;;;6.32;2.40;;;11.40;91.20;;;;;;5094594;28;20112;-81
2022/01/04 16:56:36;;;;;;;4.85;2.63;;;11.30;91.30;;;;;;5094108;28;20743;-82
2022/01/04 16:59:05;;;;;;;5.47;2.33;;;11.40;91.30;;;;;;5093183;28;20028;-80
2022/01/04 17:01:31;;;;;;;4.63;2.60;;;11.40;91.30;;;;;;5093891;28;20357;-81
2022/01/04 17:03:57;;;;;;;3.88;2.22;;;11.40;91.20;;;;;;5093809;28;20034;-79
2022/01/04 17:06:22;;;;;;;4.60;2.35;;;11.40;91.10;;;;;;5094073;28;20027;-80
2022/01/04 17:08:50;;;;;;;5.85;2.40;;;11.40;91.10;;;;;;5093780;28;20035;-79
2022/01/04 17:11:32;;;;;;;4.22;2.25;;;11.40;91.10;;;;;;5094031;28;20028;-81
2022/01/04 17:16:42;;;;;;;6.10;2.40;;;11.50;91.00;;;;;;5112448;28;20080;-79
2022/01/04 17:19:07;;;;;;;6.35;2.20;;;11.50;91.00;;;;;;5093633;28;20032;-81
2022/01/04 17:21:34;;;;;;;6.85;2.60;;;11.50;91.00;;;;;;5093812;28;20027;-79
2022/01/04 17:24:01;;;;;;;8.55;2.40;;;11.50;91.00;;;;;;5093896;28;20049;-80
2022/01/04 17:26:27;;;;;;;5.85;2.30;;;11.50;91.00;;;;;;5093316;28;20027;-79
2022/01/04 17:28:53;;;;;;;5.57;2.22;;;11.50;90.90;;;;;;5093376;28;20028;-79
2022/01/04 17:31:19;;;;;;;5.45;2.20;;;11.50;90.90;;;;;;5075600;28;20035;-82
2022/01/04 17:33:44;;;;;;;6.55;2.30;;;11.50;91.00;;;;;;5073445;28;20028;-79
2022/01/04 17:36:10;;;;;;;5.18;2.10;;;11.40;90.80;;;;;;5076299;28;20024;-78
2022/01/04 17:38:36;;;;;;;8.80;2.42;;;11.40;90.70;;;;;;5093982;28;20024;-79
2022/01/04 17:41:02;;;;;;;3.95;2.13;;;11.50;90.80;;;;;;5075470;28;20036;-78
2022/01/04 17:43:28;;;;;;;5.97;2.28;;;11.40;90.60;;;;;;5094182;28;20024;-78
2022/01/04 17:45:56;;;;;;;4.93;2.13;;;11.40;90.60;;;;;;5075177;28;20030;-79
2022/01/04 17:48:23;;;;;;;4.63;1.95;;;11.40;90.70;;;;;;5075212;28;20020;-79
2022/01/04 17:50:49;;;;;;;8.38;2.83;;;11.40;90.70;;;;;;5075625;28;20404;-80
2022/01/04 17:53:15;;;;;;;4.38;2.03;;;11.30;91.00;;;;;;5078048;28;20019;-80
2022/01/04 17:55:42;;;;;;;3.55;1.80;;;11.30;90.70;;;;;;5095678;28;20062;-80
2022/01/04 17:58:08;;;;;;;5.38;1.90;;;11.30;90.80;;;;;;5095562;28;20031;-81
2022/01/04 18:00:35;;;;;;;3.90;1.67;;;11.30;90.90;;;;;;5095445;28;20400;-80
2022/01/04 18:03:02;;;;;;;4.35;1.90;;;11.30;90.80;;;;;;5094480;28;20111;-80
2022/01/04 18:05:28;;;;;;;7.40;2.65;;;11.30;90.90;;;;;;5114328;28;20028;-81
2022/01/04 18:07:54;;;;;;;4.63;2.22;;;11.30;90.90;;;;;;5095153;28;20373;-79
2022/01/04 18:10:22;;;;;;;6.93;2.03;;;11.30;91.00;;;;;;5113420;28;20032;-80
2022/01/04 18:12:47;;;;;;;3.45;1.60;;;11.30;91.00;;;;;;5094911;28;20036;-80
2022/01/04 18:15:13;;;;;;;4.05;1.88;;;11.30;91.00;;;;;;5112941;22;20039;-80
2022/01/04 18:17:39;;;;;;;6.20;2.10;;;11.30;90.90;;;;;;5092864;28;20027;-79
2022/01/04 18:20:06;;;;;;;7.05;2.50;;;11.30;90.90;;;;;;5074356;28;20032;-80
2022/01/04 18:22:33;;;;;;;4.90;1.80;;;11.30;90.90;;;;;;5074070;28;20024;-80
2022/01/04 18:24:58;;;;;;;3.92;1.73;;;11.30;91.00;;;;;;5073540;28;20024;-81
2022/01/04 18:27:24;;;;;;;5.05;1.90;;;11.30;91.00;;;;;;5073521;28;20024;-82
2022/01/04 18:29:49;;;;;;;3.97;1.90;;;11.30;91.00;;;;;;5074333;28;20027;-81
2022/01/04 18:32:15;;;;;;;5.03;1.80;;;11.30;90.90;;;;;;5078894;28;20048;-82
2022/01/04 18:34:41;;;;;;;5.75;1.70;;;11.30;90.90;;;;;;5080487;28;20482;-82
2022/01/04 18:37:07;;;;;;;4.60;1.65;;;11.30;90.90;;;;;;5079869;28;20031;-81
2022/01/04 18:39:33;;;;;;;7.32;1.80;;;11.30;90.90;;;;;;5081081;28;20494;-82
2022/01/04 18:42:00;;;;;;;4.10;1.73;;;11.30;91.00;;;;;;5080923;28;20012;-82
2022/01/04 18:44:25;;;;;;;3.85;1.60;;;11.30;90.90;;;;;;5077716;28;20082;-78
2022/01/04 18:46:53;;;;;;;4.50;1.70;;;11.30;90.90;;;;;;5076271;28;20025;-79
2022/01/04 18:49:19;;;;;;;4.30;1.63;;;11.30;90.90;;;;;;5087616;28;20511;-80
2022/01/04 18:51:45;;;;;;;5.40;2.00;;;11.30;90.90;;;;;;5098843;28;20032;-79
2022/01/04 18:54:10;;;;;;;3.80;1.60;;;11.30;90.90;;;;;;5096661;28;20477;-80
2022/01/04 18:56:36;;;;;;;5.65;1.90;;;11.30;90.90;;;;;;5097234;28;20098;-80
2022/01/04 18:59:03;;;;;;;8.20;1.60;;;11.30;90.90;;;;;;5098056;28;20024;-81
2022/01/04 19:01:33;;;;;;;4.05;1.40;;;11.30;90.90;;;;;;5096968;28;20057;-80
2022/01/04 19:03:59;;;;;;;6.65;1.80;;;11.30;90.90;;;;;;5094913;28;20051;-82
2022/01/04 19:06:25;;;;;;;6.25;1.88;;;11.30;90.90;;;;;;5086556;28;20023;-82
2022/01/04 19:08:51;;;;;;;6.15;1.77;;;11.30;90.90;;;;;;5077867;28;20024;-81